createdAt,value
2023-01-13T00:01:52.425Z,99858.66
2023-01-13T00:04:22.399Z,99868.25
2023-01-13T00:06:52.535Z,99865.00
2023-01-13T00:09:22.709Z,99862.19
2023-01-13T00:11:52.769Z,99855.47
2023-01-13T00:14:26.420Z,99866.28
2023-01-13T00:16:56.406Z,99857.59
2023-01-13T00:19:26.436Z,99863.06
2023-01-13T00:21:56.459Z,99853.75
2023-01-13T00:24:26.533Z,99864.81
2023-01-13T00:26:56.619Z,99859.56
2023-01-13T00:29:29.403Z,99863.91
2023-01-13T00:31:59.350Z,99857.50
2023-01-13T00:34:29.415Z,99836.44
2023-01-13T00:36:59.424Z,99844.72
2023-01-13T00:39:29.560Z,99856.28
2023-01-13T00:42:11.944Z,99851.47
2023-01-13T00:44:44.667Z,99848.38
2023-01-13T00:47:14.637Z,99840.44
2023-01-13T00:49:44.962Z,99844.78
2023-01-13T00:52:15.424Z,99843.16
2023-01-13T00:55:01.063Z,99848.97
2023-01-13T00:57:31.117Z,99864.97
2023-01-13T01:00:04.903Z,99848.72
2023-01-13T01:02:34.906Z,99860.91
2023-01-13T01:05:05.008Z,99851.44
2023-01-13T01:07:35.047Z,99854.16
2023-01-13T01:10:05.231Z,99861.34
2023-01-13T01:12:35.286Z,99859.94
2023-01-13T01:15:10.219Z,99861.59
2023-01-13T01:17:40.854Z,99853.47
2023-01-13T01:20:12.777Z,99857.69
2023-01-13T01:22:42.897Z,99845.81
2023-01-13T01:25:13.164Z,99853.78
2023-01-13T01:28:06.517Z,99855.47
2023-01-13T01:30:41.949Z,99860.28
2023-01-13T01:33:12.027Z,99847.84
2023-01-13T01:35:42.983Z,99854.09
2023-01-13T01:38:13.101Z,99851.31
2023-01-13T01:40:43.282Z,99833.09
2023-01-13T01:43:30.394Z,99845.59
2023-01-13T01:46:03.211Z,99842.09
2023-01-13T01:48:37.907Z,99845.94
2023-01-13T01:51:12.540Z,99838.75
2023-01-13T01:53:44.370Z,99834.81
2023-01-13T01:56:14.478Z,99843.69
2023-01-13T01:58:49.956Z,99836.16
2023-01-13T02:01:23.027Z,99838.91
2023-01-13T02:03:59.228Z,99831.72
2023-01-13T02:06:30.906Z,99830.88
2023-01-13T02:09:02.767Z,99821.28
2023-01-13T02:11:47.565Z,99823.03
2023-01-13T02:14:17.787Z,99831.03
2023-01-13T02:17:02.483Z,99824.59
2023-01-13T02:19:57.775Z,99824.22
2023-01-13T02:22:46.104Z,99823.19
2023-01-13T02:25:37.244Z,99813.19
2023-01-13T02:28:24.893Z,99817.38
2023-01-13T02:31:15.160Z,99814.59
2023-01-13T02:33:58.036Z,99812.78
2023-01-13T02:36:35.064Z,99815.19
2023-01-13T02:39:12.372Z,99808.25
2023-01-13T02:42:02.216Z,99811.09
2023-01-13T02:44:40.115Z,99812.56
2023-01-13T02:47:19.018Z,99813.16
2023-01-13T02:49:52.772Z,99810.78
2023-01-13T02:52:27.868Z,99810.97
2023-01-13T02:55:02.305Z,99811.50
2023-01-13T02:57:35.749Z,99808.59
2023-01-13T03:00:08.933Z,99810.78
2023-01-13T03:02:41.673Z,99807.69
2023-01-13T03:05:16.994Z,99815.19
2023-01-13T03:08:07.635Z,99812.53
2023-01-13T03:10:47.569Z,99807.88
2023-01-13T03:13:43.114Z,99799.28
2023-01-13T03:16:23.826Z,99804.09
2023-01-13T03:19:08.810Z,99800.28
2023-01-13T03:21:44.104Z,99799.38
2023-01-13T03:24:20.180Z,99792.22
2023-01-13T03:26:53.921Z,99782.28
2023-01-13T03:29:31.599Z,99792.59
2023-01-13T03:32:05.998Z,99790.50
2023-01-13T03:34:45.991Z,99790.13
2023-01-13T03:37:19.837Z,99789.97
2023-01-13T03:39:55.792Z,99781.72
2023-01-13T03:42:29.307Z,99788.31
2023-01-13T03:45:03.267Z,99792.50
2023-01-13T03:47:41.241Z,99791.94
2023-01-13T03:50:18.414Z,99783.63
2023-01-13T03:52:52.248Z,99791.50
2023-01-13T03:55:28.460Z,99791.41
2023-01-13T03:58:04.266Z,99780.25
2023-01-13T04:00:39.281Z,99787.84
2023-01-13T04:03:13.450Z,99795.75
2023-01-13T04:05:49.561Z,99794.69
2023-01-13T04:08:23.748Z,99792.78
2023-01-13T04:11:08.261Z,99782.19
2023-01-13T04:13:54.927Z,99777.34
2023-01-13T04:16:24.993Z,99791.69
2023-01-13T04:18:54.955Z,99792.28
2023-01-13T04:21:27.802Z,99777.44
2023-01-13T04:23:57.815Z,99779.06
2023-01-13T04:26:27.735Z,99783.63
2023-01-13T04:28:57.667Z,99782.03
2023-01-13T04:31:27.795Z,99782.81
2023-01-13T04:33:57.850Z,99787.75
2023-01-13T04:36:30.532Z,99796.53
2023-01-13T04:39:00.451Z,99785.38
2023-01-13T04:41:50.492Z,99782.28
2023-01-13T04:44:20.428Z,99794.34
2023-01-13T04:46:50.352Z,99781.53
2023-01-13T04:49:20.311Z,99786.50
2023-01-13T04:51:52.882Z,99788.97
2023-01-13T04:54:22.865Z,99787.06
2023-01-13T04:56:52.802Z,99791.63
2023-01-13T04:59:22.735Z,99795.38
2023-01-13T05:01:52.850Z,99796.38
2023-01-13T05:04:22.967Z,99798.69
2023-01-13T05:06:55.602Z,99805.63
2023-01-13T05:09:25.557Z,99806.59
2023-01-13T05:12:07.917Z,99805.44
2023-01-13T05:14:50.281Z,99802.34
2023-01-13T05:17:23.237Z,99806.97
2023-01-13T05:19:56.131Z,99808.13
2023-01-13T05:22:41.122Z,99814.72
2023-01-13T05:25:24.490Z,99806.84
2023-01-13T05:27:56.521Z,99812.13
2023-01-13T05:30:28.281Z,99818.81
2023-01-13T05:32:58.371Z,99811.69
2023-01-13T05:35:29.192Z,99822.47
2023-01-13T05:38:01.754Z,99817.75
2023-01-13T05:40:44.242Z,99810.53
2023-01-13T05:43:25.212Z,99810.66
2023-01-13T05:45:59.235Z,99811.53
2023-01-13T05:48:32.898Z,99821.13
2023-01-13T05:51:03.526Z,99818.41
2023-01-13T05:53:36.628Z,99822.91
2023-01-13T05:56:08.201Z,99813.84
2023-01-13T05:58:38.331Z,99822.81
2023-01-13T06:01:10.300Z,99826.00
2023-01-13T06:03:41.123Z,99840.00
2023-01-13T06:06:11.430Z,99840.19
2023-01-13T06:08:43.992Z,99852.63
2023-01-13T06:11:13.981Z,99847.69
2023-01-13T06:13:44.106Z,99849.69
2023-01-13T06:16:14.157Z,99857.19
2023-01-13T06:18:44.164Z,99859.22
2023-01-13T06:21:14.095Z,99852.00
2023-01-13T06:23:46.736Z,99852.72
2023-01-13T06:26:20.413Z,99840.53
2023-01-13T06:28:50.535Z,99849.41
2023-01-13T06:31:21.518Z,99855.38
2023-01-13T06:33:56.407Z,99857.47
2023-01-13T06:36:33.821Z,99867.06
2023-01-13T06:39:07.304Z,99857.28
2023-01-13T06:41:49.904Z,99857.66
2023-01-13T06:44:20.594Z,99851.88
2023-01-13T06:46:50.823Z,99853.72
2023-01-13T06:49:21.766Z,99847.84
2023-01-13T06:51:52.369Z,99852.81
2023-01-13T06:54:27.588Z,99848.53
2023-01-13T06:57:17.952Z,99848.72
2023-01-13T06:59:47.889Z,99838.19
2023-01-13T07:02:17.946Z,99824.47
2023-01-13T07:04:48.098Z,99815.88
2023-01-13T07:07:18.075Z,99832.31
2023-01-13T07:09:50.667Z,99849.41
2023-01-13T07:12:20.663Z,99844.56
2023-01-13T07:15:03.070Z,99841.56
2023-01-13T07:17:33.502Z,99845.31
2023-01-13T07:20:03.515Z,99840.81
2023-01-13T07:22:33.614Z,99842.56
2023-01-13T07:25:06.626Z,99850.78
2023-01-13T07:27:36.614Z,99845.47
2023-01-13T07:30:06.897Z,99845.94
2023-01-13T07:32:36.969Z,99824.09
2023-01-13T07:35:08.010Z,99813.56
2023-01-13T07:37:39.700Z,99808.91
2023-01-13T07:40:13.733Z,99837.25
2023-01-13T07:42:56.101Z,99845.47
2023-01-13T07:45:26.333Z,99832.97
2023-01-13T07:47:56.575Z,99819.25
2023-01-13T07:50:26.603Z,99833.41
2023-01-13T07:53:00.168Z,99826.19
2023-01-13T07:55:32.958Z,99833.78
2023-01-13T07:58:02.896Z,99836.34
2023-01-13T08:00:35.723Z,99855.00
2023-01-13T08:03:05.849Z,99869.72
2023-01-13T08:05:37.739Z,99853.81
2023-01-13T08:08:08.203Z,99850.06
2023-01-13T08:10:40.844Z,99855.09
2023-01-13T08:13:21.176Z,99852.16
2023-01-13T08:15:52.975Z,99865.88
2023-01-13T08:18:24.812Z,99884.16
2023-01-13T08:20:55.915Z,99894.31
2023-01-13T08:23:26.430Z,99881.44
2023-01-13T08:26:02.914Z,99892.84
2023-01-13T08:28:33.902Z,99883.69
2023-01-13T08:31:04.711Z,99893.22
2023-01-13T08:33:34.954Z,99908.56
2023-01-13T08:36:06.919Z,99911.63
2023-01-13T08:38:38.153Z,99907.03
2023-01-13T08:41:21.675Z,99901.84
2023-01-13T08:43:51.647Z,99884.53
2023-01-13T08:46:21.856Z,99881.81
2023-01-13T08:48:51.831Z,99889.09
2023-01-13T08:51:21.783Z,99880.03
2023-01-13T08:53:51.803Z,99887.72
2023-01-13T08:56:24.358Z,99892.06
2023-01-13T08:58:55.575Z,99892.06
2023-01-13T09:01:26.734Z,99929.63
2023-01-13T09:03:57.491Z,99939.19
2023-01-13T09:06:27.604Z,99931.41
2023-01-13T09:08:57.573Z,99929.66
2023-01-13T09:11:46.542Z,99934.38
2023-01-13T09:14:20.461Z,99938.69
2023-01-13T09:16:50.625Z,99914.00
2023-01-13T09:19:20.606Z,99889.66
2023-01-13T09:21:52.562Z,99842.31
2023-01-13T09:24:22.517Z,99787.94
2023-01-13T09:26:55.353Z,99807.25
2023-01-13T09:29:25.589Z,99845.88
2023-01-13T09:31:57.900Z,99864.16
2023-01-13T09:34:40.459Z,99904.91
2023-01-13T09:37:11.060Z,99916.47
2023-01-13T09:39:41.058Z,99903.13
2023-01-13T09:42:35.580Z,99897.00
2023-01-13T09:45:09.592Z,99893.13
2023-01-13T09:47:46.913Z,99885.72
2023-01-13T09:50:34.076Z,99873.22
2023-01-13T09:53:04.526Z,99870.56
2023-01-13T09:55:37.340Z,99878.25
2023-01-13T09:58:16.864Z,99887.91
2023-01-13T10:00:53.882Z,99897.00
2023-01-13T10:03:27.884Z,99897.34
2023-01-13T10:06:04.789Z,99893.75
2023-01-13T10:08:37.402Z,99903.75
2023-01-13T10:11:28.029Z,99903.09
2023-01-13T10:14:04.173Z,99900.00
2023-01-13T10:16:42.553Z,99894.31
2023-01-13T10:19:22.671Z,99893.97
2023-01-13T10:22:22.843Z,99900.34
2023-01-13T10:25:09.540Z,99903.16
2023-01-13T10:27:41.869Z,99906.97
2023-01-13T10:30:22.722Z,99915.81
2023-01-13T10:32:57.552Z,99904.22
2023-01-13T10:35:56.628Z,99902.13
2023-01-13T10:38:33.878Z,99910.78
2023-01-13T10:41:05.304Z,99899.13
2023-01-13T10:43:35.549Z,99892.69
2023-01-13T10:46:13.586Z,99905.13
2023-01-13T10:48:45.311Z,99901.47
2023-01-13T10:51:30.504Z,99887.47
2023-01-13T10:54:03.726Z,99894.44
2023-01-13T10:56:35.912Z,99883.34
2023-01-13T10:59:17.301Z,99887.13
2023-01-13T11:02:02.598Z,99894.50
2023-01-13T11:04:39.007Z,99889.28
2023-01-13T11:07:24.388Z,99897.41
2023-01-13T11:10:13.428Z,99905.84
2023-01-13T11:12:51.639Z,99908.31
2023-01-13T11:15:25.460Z,99905.50
2023-01-13T11:18:12.779Z,99907.59
2023-01-13T11:20:44.988Z,99910.50
2023-01-13T11:23:22.013Z,99902.00
2023-01-13T11:25:57.828Z,99906.75
2023-01-13T11:28:43.260Z,99896.31
2023-01-13T11:31:21.514Z,99905.16
2023-01-13T11:34:00.184Z,99890.16
2023-01-13T11:36:36.046Z,99890.13
2023-01-13T11:39:14.778Z,99900.78
2023-01-13T11:41:47.474Z,99903.81
2023-01-13T11:44:24.653Z,99897.22
2023-01-13T11:46:56.425Z,99895.78
2023-01-13T11:49:33.583Z,99888.53
2023-01-13T11:52:10.761Z,99888.16
2023-01-13T11:55:06.973Z,99896.53
2023-01-13T11:57:56.566Z,99885.50
2023-01-13T12:00:35.800Z,99900.06
2023-01-13T12:03:25.194Z,99900.44
2023-01-13T12:06:19.748Z,99911.06
2023-01-13T12:09:11.992Z,99905.59
2023-01-13T12:12:12.631Z,99899.22
2023-01-13T12:14:56.738Z,99894.06
2023-01-13T12:17:37.404Z,99896.03
2023-01-13T12:20:23.827Z,99902.47
2023-01-13T12:23:01.249Z,99898.75
2023-01-13T12:25:37.497Z,99908.22
2023-01-13T12:28:14.604Z,99900.63
2023-01-13T12:30:51.774Z,99890.56
2023-01-13T12:33:31.987Z,99893.09
2023-01-13T12:36:09.144Z,99902.31
2023-01-13T12:38:50.773Z,99903.13
2023-01-13T12:41:36.919Z,99902.50
2023-01-13T12:44:20.481Z,99896.56
2023-01-13T12:46:58.818Z,99909.66
2023-01-13T12:49:33.928Z,99909.72
2023-01-13T12:52:22.242Z,99915.44
2023-01-13T12:55:12.756Z,99932.59
2023-01-13T12:57:42.812Z,99924.84
2023-01-13T13:00:20.579Z,99913.78
2023-01-13T13:03:31.022Z,99924.38
2023-01-13T13:06:08.945Z,99926.13
2023-01-13T13:08:53.528Z,99926.94
2023-01-13T13:11:57.627Z,99936.13
2023-01-13T13:15:06.836Z,99916.59
2023-01-13T13:17:44.659Z,99919.22
2023-01-13T13:20:54.086Z,99926.44
2023-01-13T13:23:48.542Z,99927.47
2023-01-13T13:26:25.091Z,99938.56
2023-01-13T13:29:14.184Z,99938.03
2023-01-13T13:32:16.210Z,99943.69
2023-01-13T13:34:54.650Z,99947.09
2023-01-13T13:38:01.489Z,99943.97
2023-01-13T14:47:03.543Z,99975.75
2023-01-13T14:49:39.533Z,99968.16
2023-01-13T14:52:16.367Z,99967.53
2023-01-13T14:54:52.108Z,99959.63
2023-01-13T14:57:36.107Z,99954.56
2023-01-13T15:00:22.905Z,99957.47
2023-01-13T15:03:20.436Z,99975.78
2023-01-13T15:06:02.127Z,99972.66
2023-01-13T15:08:41.281Z,99967.78
2023-01-13T15:11:25.333Z,99971.59
2023-01-13T15:14:03.914Z,99989.59
2023-01-13T15:16:37.850Z,99977.97
2023-01-13T15:19:16.301Z,99975.84
2023-01-13T15:21:53.282Z,99984.97
2023-01-13T15:24:29.518Z,99985.84
2023-01-13T15:27:06.070Z,99987.44
2023-01-13T15:29:48.613Z,99987.03
2023-01-13T15:32:22.123Z,99986.78
2023-01-13T15:34:57.302Z,99991.13
2023-01-13T15:37:28.780Z,99999.09
2023-01-13T15:40:16.573Z,100000.63
2023-01-13T15:42:59.214Z,100007.41
2023-01-13T15:45:42.449Z,100016.53
2023-01-13T15:48:13.802Z,100016.88
2023-01-13T15:54:13.153Z,100006.34
2023-01-13T15:59:34.715Z,100009.69
2023-01-13T16:02:38.083Z,100009.03
2023-01-13T16:05:14.691Z,100012.34
2023-01-13T16:07:49.867Z,100020.78
2023-01-13T16:10:23.603Z,100020.63
2023-01-13T16:12:56.048Z,100022.59
2023-01-13T16:15:39.396Z,100025.09
2023-01-13T16:18:09.588Z,100031.53
2023-01-13T16:20:39.844Z,100027.91
2023-01-13T16:23:19.041Z,100025.88
2023-01-13T16:25:55.033Z,100032.00
2023-01-13T16:28:28.246Z,100034.69
2023-01-13T16:30:58.428Z,100028.56
2023-01-13T16:33:31.445Z,100038.84
2023-01-13T16:36:12.651Z,100050.28
2023-01-13T16:38:45.436Z,100052.75
2023-01-13T16:41:19.364Z,100059.84
2023-01-13T16:44:00.252Z,100060.19
2023-01-13T16:46:32.442Z,100064.31
2023-01-13T16:49:06.429Z,100067.13
2023-01-13T16:51:36.466Z,100067.63
2023-01-13T16:54:18.593Z,100066.97
2023-01-13T16:56:48.592Z,100081.69
2023-01-13T16:59:21.846Z,100075.91
2023-01-13T17:01:58.392Z,100072.78
2023-01-13T17:04:41.024Z,100085.72
2023-01-13T17:07:12.684Z,100087.72
2023-01-13T17:09:45.447Z,100093.16
2023-01-13T17:12:17.506Z,100099.47
2023-01-13T17:14:47.488Z,100096.81
2023-01-13T17:17:32.867Z,100101.28
2023-01-13T17:20:03.016Z,100093.19
2023-01-13T17:22:58.269Z,100104.28
2023-01-13T17:25:43.196Z,100100.47
2023-01-13T17:28:27.777Z,100108.88
2023-01-13T17:38:27.588Z,100113.34
2023-01-13T17:41:32.117Z,100118.63
2023-01-13T17:44:38.258Z,100127.22
2023-01-13T17:47:57.863Z,100124.25
2023-01-13T17:50:44.131Z,100128.22
2023-01-13T17:53:54.488Z,100142.09
2023-01-13T17:58:11.393Z,100134.50
2023-01-13T18:06:17.567Z,100138.78
2023-01-13T18:08:58.479Z,100132.84
2023-01-13T18:15:26.915Z,100130.34
2023-01-13T18:18:04.736Z,100139.59
2023-01-13T18:21:12.093Z,100126.53
2023-01-13T18:27:59.948Z,100141.25
2023-01-13T18:31:12.757Z,100137.94
2023-01-13T18:33:46.914Z,100144.22
2023-01-13T18:37:10.392Z,100147.22
2023-01-13T18:40:16.194Z,100149.34
2023-01-13T18:43:05.414Z,100156.78
2023-01-13T18:52:03.841Z,100169.84
2023-01-13T18:53:32.563Z,100165.88
2023-01-13T18:56:09.857Z,100162.75
2023-01-13T19:03:39.359Z,100174.97
2023-01-13T19:06:54.033Z,100192.31
2023-01-13T19:09:31.228Z,100189.34
2023-01-13T19:12:11.752Z,100200.94
2023-01-13T19:14:55.067Z,100195.81
2023-01-13T19:17:31.037Z,100201.75
2023-01-13T19:20:08.027Z,100208.53
2023-01-13T19:23:20.249Z,100209.84
2023-01-13T19:25:58.953Z,100212.00
2023-01-13T19:28:32.455Z,100215.13
2023-01-13T19:31:23.368Z,100214.16
2023-01-13T19:34:16.810Z,100214.97
2023-01-13T19:36:47.046Z,100221.41
2023-01-13T19:39:56.109Z,100224.06
2023-01-13T19:42:57.538Z,100238.94
2023-01-13T19:45:36.389Z,100233.50
2023-01-13T19:48:41.417Z,100246.22
2023-01-13T19:51:46.551Z,100230.88
2023-01-13T19:54:34.322Z,100234.16
2023-01-13T19:57:27.657Z,100248.53
2023-01-13T20:00:11.446Z,100255.31
2023-01-13T20:03:01.220Z,100257.94
2023-01-13T20:05:48.002Z,100255.28
2023-01-13T20:08:37.053Z,100268.22
2023-01-13T20:11:27.807Z,100258.47
2023-01-13T20:14:01.138Z,100254.34
2023-01-13T20:16:44.626Z,100278.31
2023-01-13T20:19:18.109Z,100274.34
2023-01-13T20:22:32.254Z,100280.63
2023-01-13T20:25:17.390Z,100275.50
2023-01-13T20:28:00.217Z,100285.25
2023-01-13T20:30:30.576Z,100282.94
2023-01-13T20:33:20.161Z,100288.88
2023-01-13T20:36:02.200Z,100299.13
2023-01-13T20:41:46.273Z,100296.81
2023-01-13T20:44:32.359Z,100293.34
2023-01-13T20:47:20.256Z,100300.97
2023-01-13T20:53:17.191Z,100292.50
2023-01-13T20:55:59.454Z,100289.00
2023-01-13T20:58:29.431Z,100290.53
2023-01-13T21:01:02.272Z,100293.97
2023-01-13T21:03:35.153Z,100295.94
2023-01-13T21:06:20.839Z,100297.44
2023-01-13T21:09:05.345Z,100299.44
2023-01-13T21:11:48.276Z,100306.38
2023-01-13T21:14:32.774Z,100303.91
2023-01-13T21:17:30.986Z,100305.03
2023-01-13T21:20:15.595Z,100304.41
2023-01-13T21:22:52.149Z,100288.22
2023-01-13T21:25:22.566Z,100301.25
2023-01-13T21:27:52.573Z,100304.53
2023-01-13T21:30:31.577Z,100312.31
2023-01-13T21:33:04.288Z,100311.00
2023-01-13T21:35:39.958Z,100320.59
2023-01-13T21:38:17.393Z,100330.66
2023-01-13T21:40:47.462Z,100330.16
2023-01-13T21:43:35.321Z,100343.50
2023-01-13T21:46:28.007Z,100330.34
2023-01-13T21:49:03.691Z,100333.38
2023-01-13T21:51:41.716Z,100336.78
2023-01-13T21:54:17.202Z,100336.28
2023-01-13T21:56:47.267Z,100332.47
2023-01-13T21:59:40.501Z,100347.53
2023-01-13T22:02:25.674Z,100349.97
2023-01-13T22:05:08.847Z,100344.97
2023-01-13T22:08:11.305Z,100353.28
2023-01-13T22:10:58.044Z,100368.31
2023-01-13T22:13:43.251Z,100361.88
2023-01-13T22:16:41.760Z,100362.06
2023-01-13T22:19:30.700Z,100372.91
2023-01-13T22:22:03.129Z,100376.06
2023-01-13T22:24:36.609Z,100369.19
2023-01-13T22:27:29.181Z,100373.59
2023-01-13T22:30:09.418Z,100377.53
2023-01-13T22:32:44.961Z,100376.56
2023-01-13T22:35:17.038Z,100379.03
2023-01-13T22:37:54.044Z,100379.78
2023-01-13T22:40:24.916Z,100394.94
2023-01-13T22:43:01.868Z,100389.66
2023-01-13T22:45:40.939Z,100386.19
2023-01-13T22:48:25.604Z,100390.13
2023-01-13T22:51:13.948Z,100386.00
2023-01-13T22:53:45.423Z,100401.06
2023-01-13T22:56:21.723Z,100389.25
2023-01-13T22:59:01.342Z,100417.47
2023-01-13T23:01:42.125Z,100416.09
2023-01-13T23:04:14.803Z,100410.97
2023-01-13T23:06:45.015Z,100418.66
2023-01-13T23:09:18.327Z,100427.06
2023-01-13T23:11:50.200Z,100423.28
2023-01-13T23:14:23.380Z,100420.78
2023-01-13T23:16:53.643Z,100424.03
2023-01-13T23:19:23.725Z,100432.78
2023-01-13T23:21:54.098Z,100432.09
2023-01-13T23:24:26.018Z,100435.81
2023-01-13T23:26:56.321Z,100426.81
2023-01-13T23:29:28.989Z,100434.22
2023-01-13T23:32:16.033Z,100426.53
2023-01-13T23:34:46.024Z,100430.16
2023-01-13T23:37:16.065Z,100438.06
2023-01-13T23:39:46.057Z,100432.63
2023-01-13T23:42:16.090Z,100430.00
2023-01-13T23:44:48.856Z,100430.66
2023-01-13T23:47:18.923Z,100438.28
2023-01-13T23:49:48.924Z,100437.84
2023-01-13T23:52:18.985Z,100452.03
2023-01-13T23:54:48.941Z,100449.22
2023-01-13T23:57:18.992Z,100447.56
2023-01-13T23:59:51.600Z,100445.09
